TimeEDT,TemperatureF,Dew PointF,Humidity,Sea Level PressureIn,VisibilityMPH,Wind Direction,Wind SpeedMPH,Gust SpeedMPH,PrecipitationIn,Events,Conditions,WindDirDegrees,DateUTC
1:56 AM,63.0,57.9,84,30.30,10.0,North,4.6,-,N/A,,Clear,360,2012-09-13 05:56:00
5:56 AM,61.0,57.0,87,30.30,10.0,North,5.8,-,N/A,,Clear,10,2012-09-13 09:56:00
6:56 AM,60.1,57.0,90,30.31,10.0,North,5.8,-,N/A,,Clear,10,2012-09-13 10:56:00
7:56 AM,63.0,57.9,84,30.32,10.0,North,5.8,-,N/A,,Clear,360,2012-09-13 11:56:00
8:56 AM,69.1,61.0,75,30.33,10.0,Variable,5.8,-,N/A,,Scattered Clouds,0,2012-09-13 12:56:00
10:56 AM,75.0,64.0,69,30.33,10.0,NNE,8.1,-,N/A,,Mostly Cloudy,20,2012-09-13 14:56:00
11:56 AM,81.0,62.1,52,30.32,10.0,NNE,8.1,-,N/A,,Scattered Clouds,20,2012-09-13 15:56:00
12:56 PM,81.0,63.0,54,30.30,10.0,NE,8.1,-,N/A,,Scattered Clouds,50,2012-09-13 16:56:00
1:56 PM,82.9,62.1,49,30.28,8.0,Calm,Calm,-,N/A,,Mostly Cloudy,0,2012-09-13 17:56:00
2:56 PM,82.0,63.0,52,30.25,10.0,ENE,10.4,-,N/A,,Scattered Clouds,60,2012-09-13 18:56:00
3:56 PM,82.0,62.1,51,30.24,10.0,NE,3.5,-,N/A,,Partly Cloudy,50,2012-09-13 19:56:00
4:56 PM,82.0,64.0,54,30.23,10.0,ENE,13.8,20.7,N/A,,Scattered Clouds,60,2012-09-13 20:56:00
5:56 PM,82.0,62.1,51,30.23,10.0,East,10.4,-,N/A,,Clear,90,2012-09-13 21:56:00
6:56 PM,78.1,64.0,62,30.23,10.0,East,9.2,-,N/A,,Clear,80,2012-09-13 22:56:00
7:56 PM,75.0,64.0,69,30.24,10.0,ENE,6.9,-,N/A,,Clear,70,2012-09-13 23:56:00
8:56 PM,72.0,63.0,73,30.25,10.0,NNE,4.6,-,N/A,,Clear,30,2012-09-14 00:56:00
9:56 PM,71.1,64.0,78,30.25,10.0,North,3.5,-,N/A,,Clear,10,2012-09-14 01:56:00
10:56 PM,70.0,66.0,87,30.25,10.0,North,4.6,-,N/A,,Clear,10,2012-09-14 02:56:00
11:00 PM,-9999,-9999,N/A,-9999,-9999.0,North,-9999.0,-,N/A,,Unknown,0,2012-09-14 03:00:00
11:56 PM,69.1,66.0,90,30.24,10.0,North,3.5,-,N/A,,Clear,10,2012-09-14 03:56:00